createdAt,value
2019-06-20T00:02:28.621Z,16.80
2019-06-20T00:06:11.370Z,16.80
2019-06-20T00:09:47.468Z,16.80
2019-06-20T00:13:30.056Z,16.70
2019-06-20T00:17:06.155Z,16.70
2019-06-20T00:21:10.504Z,16.70
2019-06-20T00:24:45.774Z,16.70
2019-06-20T00:28:28.382Z,16.60
2019-06-20T00:32:03.805Z,16.50
2019-06-20T00:39:52.826Z,16.50
2019-06-20T00:43:35.630Z,16.70
2019-06-20T00:47:11.811Z,16.70
2019-06-20T00:50:54.837Z,16.80
2019-06-20T00:54:30.420Z,16.70
2019-06-20T00:58:12.977Z,16.70
2019-06-20T01:01:48.628Z,16.80
2019-06-20T01:05:31.266Z,16.90
2019-06-20T01:09:06.830Z,17.00
2019-06-20T01:12:49.635Z,17.00
2019-06-20T01:16:25.557Z,17.10
2019-06-20T01:20:08.721Z,17.20
2019-06-20T01:23:44.434Z,17.30
2019-06-20T01:27:27.104Z,17.30
2019-06-20T01:31:02.984Z,17.30
2019-06-20T01:34:39.001Z,17.30
2019-06-20T01:38:21.639Z,17.30
2019-06-20T01:41:57.031Z,17.30
2019-06-20T01:45:32.384Z,17.30
2019-06-20T01:49:14.958Z,17.30
2019-06-20T01:52:50.126Z,17.30
2019-06-20T01:56:32.761Z,17.30
2019-06-20T02:00:09.743Z,17.30
2019-06-20T02:03:52.533Z,17.30
2019-06-20T02:07:28.445Z,17.30
2019-06-20T02:11:11.354Z,17.30
2019-06-20T02:14:46.484Z,17.30
2019-06-20T02:18:29.105Z,17.30
2019-06-20T02:22:04.820Z,17.30
2019-06-20T02:25:47.391Z,17.30
2019-06-20T02:29:23.188Z,17.20
2019-06-20T02:32:59.768Z,17.20
2019-06-20T02:36:42.331Z,17.20
2019-06-20T02:40:18.365Z,17.20
2019-06-20T02:44:01.091Z,17.20
2019-06-20T02:47:36.628Z,17.20
2019-06-20T02:51:40.737Z,17.20
2019-06-20T02:55:16.730Z,17.20
2019-06-20T02:58:59.640Z,17.20
2019-06-20T03:02:35.367Z,17.20
2019-06-20T03:06:17.915Z,17.20
2019-06-20T03:09:53.080Z,17.20
2019-06-20T03:13:28.412Z,17.10
2019-06-20T03:17:11.021Z,17.10
2019-06-20T03:20:46.881Z,17.10
2019-06-20T03:24:22.217Z,17.10
2019-06-20T03:28:04.927Z,17.10
2019-06-20T03:31:44.155Z,17.10
2019-06-20T03:35:27.166Z,17.10
2019-06-20T03:39:04.503Z,17.10
2019-06-20T03:42:47.188Z,17.10
2019-06-20T03:46:22.624Z,17.10
2019-06-20T03:50:05.319Z,17.10
2019-06-20T03:53:41.121Z,17.10
2019-06-20T03:57:23.993Z,17.10
2019-06-20T04:01:00.197Z,17.10
2019-06-20T04:04:43.106Z,17.10
2019-06-20T04:08:18.813Z,17.10
2019-06-20T04:12:01.405Z,17.00
2019-06-20T04:15:37.331Z,17.00
2019-06-20T04:19:19.912Z,17.10
2019-06-20T04:22:55.294Z,17.10
2019-06-20T04:26:37.910Z,17.10
2019-06-20T04:30:13.620Z,17.20
2019-06-20T04:33:49.143Z,17.20
2019-06-20T04:37:32.299Z,17.20
2019-06-20T04:41:08.280Z,17.20
2019-06-20T04:48:54.951Z,17.20
2019-06-20T04:52:37.751Z,17.20
2019-06-20T04:56:14.072Z,17.20
2019-06-20T05:04:16.272Z,17.20
2019-06-20T05:07:51.759Z,17.20
2019-06-20T05:11:34.588Z,17.30
2019-06-20T05:15:14.919Z,17.40
2019-06-20T05:18:50.490Z,17.50
2019-06-20T05:22:33.092Z,17.60
2019-06-20T05:26:08.650Z,17.70
2019-06-20T05:29:51.203Z,17.80
2019-06-20T05:33:14.361Z,17.90
2019-06-20T05:36:50.376Z,18.00
2019-06-20T05:40:36.300Z,18.00
2019-06-20T05:44:30.464Z,18.00
2019-06-20T05:48:13.113Z,18.00
2019-06-20T05:51:48.953Z,18.00
2019-06-20T05:55:31.605Z,18.10
2019-06-20T05:59:08.156Z,18.00
2019-06-20T06:02:51.102Z,17.90
2019-06-20T06:06:26.586Z,17.70
2019-06-20T06:10:21.316Z,17.60
2019-06-20T06:14:03.975Z,17.60
2019-06-20T06:17:46.272Z,17.80
2019-06-20T06:21:22.074Z,18.20
2019-06-20T06:24:57.586Z,18.50
2019-06-20T06:28:39.616Z,18.40
2019-06-20T06:32:15.650Z,18.30
2019-06-20T06:35:58.383Z,18.20
2019-06-20T06:39:35.043Z,18.30
2019-06-20T06:43:17.976Z,18.20
2019-06-20T06:46:59.255Z,18.20
2019-06-20T06:54:54.873Z,18.20
2019-06-20T06:58:18.195Z,18.40
2019-06-20T07:01:53.813Z,18.70
2019-06-20T07:05:36.649Z,18.70
2019-06-20T07:09:12.059Z,18.80
2019-06-20T07:12:54.940Z,18.80
2019-06-20T07:16:33.176Z,18.80
2019-06-20T07:19:56.491Z,18.90
2019-06-20T07:23:32.501Z,19.20
2019-06-20T07:27:15.251Z,19.80
2019-06-20T07:30:53.150Z,20.10
2019-06-20T07:34:28.637Z,20.30
2019-06-20T07:38:11.219Z,20.30
2019-06-20T07:41:34.530Z,20.30
2019-06-20T07:45:38.565Z,20.20
2019-06-20T07:49:04.287Z,20.10
2019-06-20T07:53:01.576Z,19.90
2019-06-20T07:56:31.408Z,19.60
2019-06-20T08:00:26.401Z,19.60
2019-06-20T08:04:09.191Z,19.80
2019-06-20T08:07:32.478Z,20.00
2019-06-20T08:11:15.108Z,20.10
2019-06-20T08:14:50.748Z,20.30
2019-06-20T08:18:33.346Z,20.00
2019-06-20T08:22:10.099Z,20.00
2019-06-20T08:25:52.962Z,20.10
2019-06-20T08:29:28.741Z,20.30
2019-06-20T08:33:11.226Z,20.20
2019-06-20T08:36:49.607Z,20.20
2019-06-20T08:40:25.028Z,20.30
2019-06-20T08:44:03.940Z,20.70
2019-06-20T08:47:46.748Z,21.00
2019-06-20T08:51:22.942Z,21.20
2019-06-20T08:54:59.587Z,21.20
2019-06-20T08:58:42.539Z,21.30
2019-06-20T09:02:18.403Z,21.20
2019-06-20T09:05:55.456Z,21.20
2019-06-20T09:09:19.686Z,21.40
2019-06-20T09:12:55.133Z,21.30
2019-06-20T09:16:30.512Z,21.60
2019-06-20T09:20:06.343Z,22.10
2019-06-20T09:23:49.038Z,22.30
2019-06-20T09:27:24.926Z,22.40
2019-06-20T09:31:07.513Z,22.30
2019-06-20T09:34:43.233Z,22.00
2019-06-20T09:38:25.787Z,22.00
2019-06-20T09:42:00.970Z,21.90
2019-06-20T09:45:43.553Z,21.90
2019-06-20T09:49:18.970Z,21.90
2019-06-20T09:53:01.599Z,21.30
2019-06-20T09:56:37.812Z,21.10
2019-06-20T10:00:33.296Z,21.50
2019-06-20T10:04:15.883Z,22.30
2019-06-20T10:07:58.467Z,22.60
2019-06-20T10:11:34.355Z,22.30
2019-06-20T10:15:36.313Z,22.50
2019-06-20T10:19:13.509Z,23.30
2019-06-20T10:22:49.325Z,23.80
2019-06-20T10:26:31.960Z,24.50
2019-06-20T10:30:14.275Z,25.70
2019-06-20T10:33:46.847Z,26.00
2019-06-20T10:37:29.582Z,25.50
2019-06-20T10:41:05.643Z,24.80
2019-06-20T10:44:48.216Z,24.50
2019-06-20T10:48:23.658Z,24.80
2019-06-20T10:52:07.331Z,24.80
2019-06-20T10:55:43.369Z,24.60
2019-06-20T10:59:20.026Z,25.60
2019-06-20T11:03:02.726Z,26.20
2019-06-20T11:06:39.884Z,25.70
2019-06-20T11:10:34.758Z,24.70
2019-06-20T11:14:17.612Z,24.10
2019-06-20T11:17:56.704Z,25.00
2019-06-20T11:21:39.770Z,26.30
2019-06-20T11:25:36.962Z,25.90
2019-06-20T11:29:20.834Z,24.70
2019-06-20T11:32:56.142Z,23.90
2019-06-20T11:36:31.423Z,23.40
2019-06-20T11:40:25.715Z,23.00
2019-06-20T11:44:08.310Z,23.00
2019-06-20T11:47:44.589Z,23.30
2019-06-20T11:51:27.182Z,24.00
2019-06-20T11:55:02.843Z,24.30
2019-06-20T11:58:45.773Z,24.40
2019-06-20T12:02:21.349Z,24.20
2019-06-20T12:05:56.824Z,24.00
2019-06-20T12:09:32.353Z,23.80
2019-06-20T12:13:07.854Z,23.50
2019-06-20T12:16:50.488Z,23.30
2019-06-20T12:20:25.668Z,23.00
2019-06-20T12:24:00.905Z,22.50
2019-06-20T12:27:43.538Z,22.40
2019-06-20T12:31:19.996Z,22.40
2019-06-20T12:34:56.098Z,22.50
2019-06-20T12:38:39.890Z,22.70
2019-06-20T12:42:35.798Z,23.10
2019-06-20T12:46:18.342Z,23.10
2019-06-20T12:49:53.646Z,23.00
2019-06-20T12:53:37.758Z,23.40
2019-06-20T12:57:34.015Z,23.40
2019-06-20T13:01:16.599Z,23.30
2019-06-20T13:04:52.090Z,23.50
2019-06-20T13:08:27.560Z,23.50
2019-06-20T13:12:10.113Z,23.30
2019-06-20T13:15:46.956Z,23.10
2019-06-20T13:19:29.708Z,22.90
2019-06-20T13:23:05.434Z,22.60
2019-06-20T13:26:49.018Z,22.40
2019-06-20T13:30:32.415Z,22.20
2019-06-20T13:34:14.960Z,22.00
2019-06-20T13:37:50.639Z,21.60
2019-06-20T13:41:33.291Z,21.20
2019-06-20T13:45:28.646Z,21.00
2019-06-20T13:49:11.572Z,20.80
2019-06-20T13:52:49.568Z,20.40
2019-06-20T13:56:32.318Z,20.00
2019-06-20T14:00:07.657Z,19.70
2019-06-20T14:03:44.046Z,19.50
2019-06-20T14:07:21.000Z,19.50
2019-06-20T14:11:03.860Z,19.40
2019-06-20T14:14:41.955Z,19.50
2019-06-20T14:18:24.388Z,19.50
2019-06-20T14:21:59.821Z,19.60
2019-06-20T14:25:35.144Z,19.50
2019-06-20T14:29:17.781Z,19.30
2019-06-20T14:32:54.014Z,19.20
2019-06-20T14:36:37.100Z,19.50
2019-06-20T14:40:12.566Z,19.40
2019-06-20T14:43:55.211Z,19.40
2019-06-20T14:47:30.476Z,19.50
2019-06-20T14:51:13.135Z,19.40
2019-06-20T14:54:49.872Z,19.40
2019-06-20T14:58:32.597Z,19.80
2019-06-20T15:02:08.776Z,20.20
2019-06-20T15:05:52.568Z,20.40
2019-06-20T15:09:35.882Z,20.40
2019-06-20T15:13:18.956Z,20.50
2019-06-20T15:16:55.424Z,20.60
2019-06-20T15:20:38.127Z,20.50
2019-06-20T15:24:14.011Z,20.60
2019-06-20T15:27:57.328Z,20.70
2019-06-20T15:31:43.767Z,20.40
2019-06-20T15:35:36.414Z,20.30
2019-06-20T15:39:11.859Z,20.60
2019-06-20T15:42:49.605Z,21.20
2019-06-20T15:46:32.884Z,21.90
2019-06-20T15:50:09.077Z,22.50
2019-06-20T15:53:51.833Z,23.50
2019-06-20T15:57:27.077Z,24.00
2019-06-20T16:01:09.776Z,24.40
2019-06-20T16:04:45.494Z,25.10
2019-06-20T16:08:28.166Z,25.40
2019-06-20T16:12:03.733Z,25.70
2019-06-20T16:15:46.732Z,25.30
2019-06-20T16:19:22.788Z,24.40
2019-06-20T16:22:45.920Z,23.30
2019-06-20T16:26:21.573Z,22.50
2019-06-20T16:30:04.876Z,22.10
2019-06-20T16:37:59.607Z,21.00
2019-06-20T16:41:34.853Z,20.40
2019-06-20T16:49:15.410Z,18.60
2019-06-20T16:52:53.342Z,17.80
2019-06-20T16:56:36.404Z,17.30
2019-06-20T17:00:12.237Z,17.10
2019-06-20T17:03:55.612Z,16.90
2019-06-20T17:07:31.887Z,16.90
2019-06-20T17:11:07.920Z,16.80
2019-06-20T17:14:50.625Z,16.80
2019-06-20T17:18:13.857Z,16.90
2019-06-20T17:21:56.504Z,17.10
2019-06-20T17:25:32.545Z,17.50
2019-06-20T17:29:15.340Z,17.80
2019-06-20T17:32:51.588Z,18.00
2019-06-20T17:36:34.287Z,18.20
2019-06-20T17:40:09.571Z,18.20
2019-06-20T17:43:53.137Z,18.10
2019-06-20T17:47:29.005Z,17.80
2019-06-20T17:51:04.901Z,17.60
2019-06-20T17:54:47.422Z,17.70
2019-06-20T17:58:23.232Z,17.90
2019-06-20T18:02:06.094Z,18.00
2019-06-20T18:05:42.606Z,18.00
2019-06-20T18:09:25.316Z,17.80
2019-06-20T18:13:15.829Z,17.70
2019-06-20T18:16:52.042Z,17.50
2019-06-20T18:20:27.375Z,17.40
2019-06-20T18:24:10.175Z,17.20
2019-06-20T18:27:45.986Z,17.20
2019-06-20T18:31:28.653Z,17.00
2019-06-20T18:35:04.302Z,17.00
2019-06-20T18:38:46.911Z,16.90
2019-06-20T18:42:22.469Z,17.00
2019-06-20T18:46:05.404Z,17.00
2019-06-20T18:49:40.641Z,17.10
2019-06-20T18:53:23.790Z,17.00
2019-06-20T18:56:59.023Z,16.90
2019-06-20T19:00:41.809Z,16.90
2019-06-20T19:04:07.813Z,16.80
2019-06-20T19:07:50.443Z,16.80
2019-06-20T19:11:56.613Z,16.80
2019-06-20T19:23:55.181Z,16.80
2019-06-20T19:27:45.707Z,16.80
2019-06-20T19:31:19.887Z,16.90
2019-06-20T19:35:01.961Z,17.00
2019-06-20T19:38:20.653Z,17.00
2019-06-20T19:41:56.055Z,17.00
2019-06-20T19:45:38.708Z,17.00
2019-06-20T19:49:14.245Z,16.90
2019-06-20T19:52:57.008Z,16.70
2019-06-20T19:56:32.877Z,16.60
2019-06-20T20:00:15.889Z,16.40
2019-06-20T20:03:51.480Z,16.30
2019-06-20T20:07:27.064Z,16.10
2019-06-20T20:11:09.851Z,16.00
2019-06-20T20:14:45.835Z,15.80
2019-06-20T20:18:21.391Z,15.60
2019-06-20T20:22:25.179Z,15.50
2019-06-20T20:26:01.019Z,15.40
2019-06-20T20:29:44.130Z,15.30
2019-06-20T20:33:20.024Z,15.30
2019-06-20T20:37:02.730Z,15.20
2019-06-20T20:40:38.573Z,15.20
2019-06-20T20:44:21.386Z,15.10
2019-06-20T20:47:57.893Z,15.10
2019-06-20T20:51:33.386Z,15.10
2019-06-20T20:55:09.419Z,15.20
2019-06-20T20:58:52.185Z,15.10
2019-06-20T21:02:28.331Z,15.10
2019-06-20T21:06:11.088Z,15.10
2019-06-20T21:09:46.563Z,15.00
2019-06-20T21:13:29.143Z,15.00
2019-06-20T21:17:04.432Z,14.90
2019-06-20T21:20:47.077Z,14.90
2019-06-20T21:24:22.714Z,14.80
2019-06-20T21:28:05.362Z,14.70
2019-06-20T21:31:41.308Z,14.70
2019-06-20T21:35:24.391Z,14.70
2019-06-20T21:38:59.605Z,14.70
2019-06-20T21:42:42.169Z,14.80
2019-06-20T21:46:18.907Z,14.90
2019-06-20T21:50:02.686Z,15.00
2019-06-20T21:53:38.254Z,15.00
2019-06-20T21:57:20.804Z,15.10
2019-06-20T22:00:56.390Z,15.20
2019-06-20T22:04:53.795Z,15.30
2019-06-20T22:08:28.437Z,15.30
2019-06-20T22:12:13.082Z,15.40
2019-06-20T22:15:48.538Z,15.30
2019-06-20T22:19:31.073Z,15.30
2019-06-20T22:23:06.962Z,15.20
2019-06-20T22:26:49.572Z,15.10
2019-06-20T22:30:56.420Z,14.80
2019-06-20T22:34:39.015Z,14.70
2019-06-20T22:38:14.769Z,14.50
2019-06-20T22:41:57.515Z,14.40
2019-06-20T22:45:33.215Z,14.40
2019-06-20T22:49:08.655Z,14.40
2019-06-20T22:52:44.326Z,14.50
2019-06-20T22:56:26.870Z,14.50
2019-06-20T23:00:02.781Z,14.60
2019-06-20T23:03:46.495Z,14.60
2019-06-20T23:07:22.694Z,14.60
2019-06-20T23:11:05.285Z,14.60
2019-06-20T23:14:40.857Z,14.50
2019-06-20T23:18:23.377Z,14.30
2019-06-20T23:21:58.839Z,14.20
2019-06-20T23:29:58.428Z,13.90
2019-06-20T23:33:41.078Z,13.80
2019-06-20T23:37:16.897Z,13.70
2019-06-20T23:40:59.773Z,13.60
2019-06-20T23:44:34.970Z,13.50
2019-06-20T23:48:10.626Z,13.50
2019-06-20T23:51:52.826Z,13.40
2019-06-20T23:55:35.351Z,13.40
2019-06-20T23:59:11.446Z,13.30
